Time;durP1;ratioP1;P1;durP2;ratioP2;P2;SDS_P1;SDS_P2;PMS_P1;PMS_P2;Temp;Humidity;BMP_temperature;BMP_pressure;BME280_temperature;BME280_humidity;BME280_pressure;Samples;Min_cycle;Max_cycle;Signal;HPM_P1;HPM_P2
2023/03/07 00:03:05;;;;;;;10.70;6.30;;;21.70;57.90;;;;;;221941;1263;24190;-45
2023/03/07 00:08:11;;;;;;;14.60;6.70;;;21.60;57.60;;;;;;221870;1270;22647;-42
2023/03/07 00:13:15;;;;;;;13.10;6.30;;;21.60;57.70;;;;;;221965;1256;22504;-41
2023/03/07 00:18:19;;;;;;;10.70;6.50;;;21.60;57.50;;;;;;222000;1266;24243;-42
2023/03/07 00:23:23;;;;;;;10.90;6.10;;;21.60;57.70;;;;;;221769;1267;22635;-42
2023/03/07 00:28:28;;;;;;;11.70;6.00;;;21.90;57.10;;;;;;221976;1270;22623;-43
2023/03/07 00:33:33;;;;;;;6.70;5.20;;;22.10;57.00;;;;;;221710;1264;25260;-41
2023/03/07 00:38:37;;;;;;;7.00;5.10;;;22.40;55.60;;;;;;221896;1264;22532;-42
2023/03/07 00:43:42;;;;;;;10.20;5.60;;;22.70;55.50;;;;;;221758;1264;24263;-41
2023/03/07 00:48:46;;;;;;;9.70;5.80;;;22.80;54.50;;;;;;222060;1269;24199;-45
2023/03/07 00:53:51;;;;;;;8.90;5.70;;;22.90;54.10;;;;;;221765;1267;22531;-60
2023/03/07 00:58:56;;;;;;;6.30;5.50;;;22.90;54.10;;;;;;221777;1267;22758;-60
2023/03/07 01:04:00;;;;;;;8.30;5.80;;;22.90;54.00;;;;;;221855;1269;23889;-61
2023/03/07 01:09:06;;;;;;;8.40;5.60;;;23.00;53.90;;;;;;222311;1269;25363;-60
2023/03/07 01:14:10;;;;;;;9.10;5.90;;;23.00;53.70;;;;;;222141;1267;22579;-59
2023/03/07 01:19:14;;;;;;;6.20;4.90;;;23.00;53.70;;;;;;222119;1266;22659;-60
2023/03/07 01:24:19;;;;;;;7.10;5.40;;;23.10;53.30;;;;;;222129;1270;24186;-59
2023/03/07 01:29:24;;;;;;;6.30;5.20;;;23.10;53.10;;;;;;222234;1263;22518;-59
2023/03/07 01:34:29;;;;;;;7.90;5.30;;;23.10;53.30;;;;;;222255;1263;22504;-59
2023/03/07 01:39:33;;;;;;;7.30;5.00;;;23.20;52.80;;;;;;222190;1269;22522;-59
2023/03/07 01:45:01;;;;;;;5.40;4.90;;;23.20;52.60;;;;;;222104;1267;25701;-57
2023/03/07 01:50:16;;;;;;;6.50;5.00;;;23.30;52.50;;;;;;222272;1269;26542;-59
2023/03/07 01:55:32;;;;;;;8.50;5.10;;;23.30;52.50;;;;;;221967;1269;26630;-60
2023/03/07 02:00:50;;;;;;;5.40;4.70;;;23.30;52.20;;;;;;222024;1270;22665;-62
2023/03/07 02:06:01;;;;;;;7.10;5.00;;;23.40;52.00;;;;;;222219;1270;22923;-60
2023/03/07 02:11:06;;;;;;;6.20;4.80;;;23.50;51.90;;;;;;222092;1270;22644;-60
2023/03/07 02:16:13;;;;;;;5.70;4.80;;;23.60;51.80;;;;;;222067;1269;24170;-59
2023/03/07 02:21:41;;;;;;;5.40;4.90;;;23.50;51.90;;;;;;222053;1270;164016;-43
2023/03/07 02:26:50;;;;;;;5.80;4.80;;;23.40;52.30;;;;;;221840;1263;23156;-42
2023/03/07 02:31:55;;;;;;;5.90;5.30;;;23.40;52.00;;;;;;221768;1256;22513;-43
2023/03/07 02:37:33;;;;;;;7.00;6.00;;;23.30;51.90;;;;;;222071;1264;24263;-42
2023/03/07 02:42:41;;;;;;;9.00;5.90;;;23.30;51.40;;;;;;220907;1270;24206;-42
2023/03/07 02:47:47;;;;;;;6.10;5.60;;;23.00;52.40;;;;;;220901;1273;23933;-43
2023/03/07 02:52:53;;;;;;;6.20;5.10;;;22.90;52.90;;;;;;220826;1264;23887;-42
2023/03/07 02:57:57;;;;;;;7.30;5.60;;;22.80;52.80;;;;;;220910;1273;25481;-43
2023/03/07 03:03:02;;;;;;;8.00;6.70;;;22.60;52.90;;;;;;220917;1274;22781;-42
2023/03/07 03:08:06;;;;;;;7.40;5.80;;;22.60;52.90;;;;;;220693;1270;22613;-42
2023/03/07 03:13:11;;;;;;;7.20;5.80;;;22.50;53.20;;;;;;220683;1270;22677;-42
2023/03/07 03:18:16;;;;;;;6.50;5.50;;;22.40;53.80;;;;;;221300;1256;22633;-42
2023/03/07 03:23:21;;;;;;;7.30;6.00;;;22.40;53.40;;;;;;221844;1267;22718;-44
2023/03/07 03:28:25;;;;;;;6.70;5.90;;;22.30;53.40;;;;;;221919;1269;22724;-42
2023/03/07 03:33:30;;;;;;;7.50;6.30;;;22.20;53.30;;;;;;221953;1271;22518;-43
2023/03/07 03:38:35;;;;;;;6.50;5.80;;;22.20;53.50;;;;;;222005;1255;22519;-42
2023/03/07 03:43:40;;;;;;;6.30;5.80;;;22.10;53.50;;;;;;222049;1271;24186;-43
2023/03/07 03:48:54;;;;;;;7.00;6.30;;;22.10;53.20;;;;;;222037;1265;22514;-42
2023/03/07 03:54:00;;;;;;;7.60;6.80;;;22.00;53.30;;;;;;222037;1264;25343;-45
2023/03/07 03:59:04;;;;;;;6.90;6.20;;;21.90;53.30;;;;;;221874;1271;22637;-42
2023/03/07 04:04:09;;;;;;;7.70;7.00;;;21.90;53.80;;;;;;222012;1262;22643;-43
2023/03/07 04:09:14;;;;;;;7.30;6.60;;;21.90;53.50;;;;;;222130;1268;22514;-43
2023/03/07 04:14:21;;;;;;;7.10;6.10;;;21.80;53.50;;;;;;221742;1269;22593;-43
2023/03/07 04:19:27;;;;;;;6.70;6.10;;;22.00;54.00;;;;;;222075;1270;25373;-42
2023/03/07 04:24:33;;;;;;;7.30;5.80;;;22.30;53.30;;;;;;221988;1266;22641;-42
2023/03/07 04:29:37;;;;;;;7.10;6.40;;;22.40;52.80;;;;;;221909;1263;22608;-42
2023/03/07 04:34:56;;;;;;;6.50;5.80;;;22.70;52.50;;;;;;221929;1266;22519;-43
2023/03/07 04:40:01;;;;;;;6.30;5.70;;;22.90;51.80;;;;;;222292;1269;22789;-46
2023/03/07 04:45:05;;;;;;;6.80;6.20;;;22.90;51.50;;;;;;222158;1268;22531;-42
2023/03/07 04:50:10;;;;;;;6.30;5.80;;;23.00;51.30;;;;;;222089;1263;23921;-41
2023/03/07 04:55:17;;;;;;;7.00;6.10;;;23.10;51.10;;;;;;222125;1270;22508;-43
2023/03/07 05:00:21;;;;;;;6.80;5.80;;;23.10;50.90;;;;;;222130;1270;22672;-41
2023/03/07 05:05:26;;;;;;;6.80;6.10;;;23.10;50.80;;;;;;222000;1266;24200;-42
2023/03/07 05:10:32;;;;;;;6.60;5.80;;;23.30;50.70;;;;;;222119;1264;22524;-43
2023/03/07 05:15:37;;;;;;;6.40;5.60;;;23.30;50.90;;;;;;221944;1265;24661;-45
2023/03/07 05:20:42;;;;;;;6.00;5.50;;;23.30;50.60;;;;;;222096;1264;25284;-43
2023/03/07 05:25:46;;;;;;;7.30;6.60;;;23.40;50.30;;;;;;222079;1270;22507;-43
2023/03/07 05:30:51;;;;;;;6.70;6.00;;;23.40;50.30;;;;;;222179;1266;22521;-43
2023/03/07 05:36:02;;;;;;;5.90;5.40;;;23.40;50.30;;;;;;221714;1264;22630;-43
2023/03/07 05:41:07;;;;;;;6.30;5.70;;;23.40;50.70;;;;;;221764;1256;25840;-55
2023/03/07 05:46:12;;;;;;;7.20;5.70;;;23.40;50.20;;;;;;222025;1265;22530;-59
2023/03/07 05:51:16;;;;;;;6.30;5.70;;;23.40;50.20;;;;;;221671;1271;22725;-59
2023/03/07 05:56:21;;;;;;;6.00;5.50;;;23.40;50.40;;;;;;222168;1262;22505;-58
2023/03/07 06:01:25;;;;;;;5.70;5.20;;;23.40;49.90;;;;;;222123;1264;25408;-58
2023/03/07 06:06:33;;;;;;;6.10;5.50;;;23.40;49.90;;;;;;221972;1270;22512;-61
2023/03/07 06:11:37;;;;;;;6.50;5.90;;;23.40;50.20;;;;;;221966;1257;24480;-59
2023/03/07 06:16:41;;;;;;;6.30;5.30;;;23.50;49.80;;;;;;221921;1270;22507;-60
2023/03/07 06:21:45;;;;;;;6.20;5.60;;;23.60;49.70;;;;;;222048;1266;22539;-60
2023/03/07 06:26:49;;;;;;;6.40;5.80;;;23.60;49.60;;;;;;222143;1270;25395;-61
2023/03/07 06:31:55;;;;;;;6.80;6.20;;;23.50;49.60;;;;;;221855;1247;22637;-58
2023/03/07 06:37:02;;;;;;;7.10;6.10;;;23.60;49.60;;;;;;221850;1265;25439;-60
2023/03/07 06:42:06;;;;;;;6.70;6.00;;;23.40;49.60;;;;;;221856;1270;22534;-60
2023/03/07 06:47:10;;;;;;;6.30;5.70;;;23.30;49.60;;;;;;221915;1264;22507;-60
2023/03/07 06:52:14;;;;;;;6.60;6.00;;;23.20;51.00;;;;;;221824;1266;23092;-55
2023/03/07 06:57:20;;;;;;;6.00;5.40;;;23.00;51.50;;;;;;221881;1257;25544;-56
2023/03/07 07:02:25;;;;;;;6.20;5.60;;;22.80;51.30;;;;;;221860;1264;22565;-55
2023/03/07 07:07:30;;;;;;;6.40;5.50;;;22.80;51.60;;;;;;222082;1264;22511;-57
2023/03/07 07:12:34;;;;;;;7.90;5.50;;;22.70;51.80;;;;;;222038;1263;24176;-54
2023/03/07 07:17:39;;;;;;;8.80;6.20;;;22.70;51.50;;;;;;222208;1257;22660;-55
2023/03/07 07:22:43;;;;;;;10.40;5.60;;;22.70;52.30;;;;;;222177;1270;25311;-50
2023/03/07 07:27:47;;;;;;;7.10;5.40;;;22.60;52.20;;;;;;222023;1263;24196;-50
2023/03/07 07:32:52;;;;;;;8.30;5.90;;;22.50;52.70;;;;;;222157;1258;23019;-51
2023/03/07 07:37:57;;;;;;;7.20;4.80;;;22.50;53.00;;;;;;221889;1266;22620;-53
2023/03/07 07:43:01;;;;;;;8.00;5.80;;;22.50;53.10;;;;;;222119;1263;22505;-52
2023/03/07 07:48:19;;;;;;;8.70;5.50;;;22.50;52.70;;;;;;222085;1264;22613;-53
2023/03/07 07:53:23;;;;;;;7.00;5.80;;;22.40;53.10;;;;;;222097;1263;22769;-47
2023/03/07 07:58:27;;;;;;;8.90;5.20;;;22.40;53.30;;;;;;221828;1247;22534;-49
2023/03/07 08:03:32;;;;;;;8.00;5.20;;;22.40;53.90;;;;;;222063;1263;22619;-47
2023/03/07 08:08:36;;;;;;;15.10;5.90;;;22.30;53.60;;;;;;222187;1263;22600;-49
2023/03/07 08:13:41;;;;;;;11.20;5.20;;;22.30;54.30;;;;;;222070;1263;24301;-54
2023/03/07 08:18:53;;;;;;;10.90;5.20;;;22.30;53.50;;;;;;222189;1263;24244;-52
2023/03/07 08:23:57;;;;;;;12.90;5.50;;;22.20;53.40;;;;;;229877;1256;22149;-55
2023/03/07 08:29:01;;;;;;;10.80;5.30;;;22.20;53.50;;;;;;225390;1263;28736;-53
2023/03/07 08:34:06;;;;;;;5.80;4.70;;;22.20;53.20;;;;;;223592;1263;22824;-48
2023/03/07 08:39:10;;;;;;;7.40;4.60;;;22.20;53.50;;;;;;222243;1270;22689;-56
2023/03/07 08:44:15;;;;;;;6.40;4.70;;;22.10;53.80;;;;;;222244;1257;25441;-50
2023/03/07 08:49:19;;;;;;;5.10;4.60;;;22.10;53.70;;;;;;222134;1266;22511;-54
2023/03/07 08:54:23;;;;;;;5.40;4.50;;;22.00;53.60;;;;;;222311;1256;22852;-49
2023/03/07 08:59:27;;;;;;;5.70;4.50;;;22.00;53.60;;;;;;222167;1252;24228;-55
2023/03/07 09:04:31;;;;;;;5.20;4.70;;;22.00;53.50;;;;;;222035;1263;24245;-46
2023/03/07 09:09:35;;;;;;;6.20;4.20;;;22.10;53.30;;;;;;221898;1263;22989;-50
2023/03/07 09:14:39;;;;;;;7.20;4.40;;;22.10;53.10;;;;;;222094;1263;26119;-55
2023/03/07 09:19:43;;;;;;;4.70;4.20;;;22.10;53.10;;;;;;221992;1258;22526;-55
2023/03/07 09:24:47;;;;;;;4.40;3.90;;;22.10;53.40;;;;;;222074;1263;25316;-53
2023/03/07 09:29:51;;;;;;;4.50;4.20;;;22.10;52.90;;;;;;222190;1263;22500;-53
2023/03/07 09:34:55;;;;;;;4.90;4.50;;;22.30;52.40;;;;;;222103;1263;23915;-54
2023/03/07 09:39:59;;;;;;;5.20;4.10;;;22.40;51.80;;;;;;222144;1263;22522;-61
2023/03/07 09:45:28;;;;;;;4.90;4.20;;;22.30;52.00;;;;;;222106;1266;22512;-57
2023/03/07 09:50:55;;;;;;;4.10;3.70;;;22.30;51.80;;;;;;222046;1263;25423;-57
2023/03/07 09:56:02;;;;;;;4.30;3.90;;;22.20;51.90;;;;;;222104;1263;25305;-53
2023/03/07 10:01:11;;;;;;;4.40;4.00;;;22.00;52.30;;;;;;222203;1253;22494;-53
2023/03/07 10:06:29;;;;;;;4.80;3.70;;;21.90;52.50;;;;;;222253;1247;24358;-54
2023/03/07 10:11:42;;;;;;;4.50;4.10;;;21.80;52.50;;;;;;221977;1263;26574;-59
2023/03/07 10:16:51;;;;;;;5.40;3.60;;;21.90;53.10;;;;;;222056;1258;24227;-57
2023/03/07 10:22:37;;;;;;;4.30;3.90;;;21.80;52.50;;;;;;222007;1263;25386;-54
2023/03/07 10:27:43;;;;;;;3.90;3.60;;;21.80;52.60;;;;;;222077;1256;24184;-53
2023/03/07 10:32:52;;;;;;;4.00;3.60;;;21.90;52.20;;;;;;222074;1254;24352;-52
2023/03/07 10:38:03;;;;;;;6.90;3.60;;;21.80;52.10;;;;;;222159;1262;25300;-52
2023/03/07 10:43:19;;;;;;;5.60;3.80;;;21.90;52.50;;;;;;222009;1263;25322;-58
2023/03/07 10:48:25;;;;;;;3.90;3.50;;;21.80;52.10;;;;;;221949;1263;22587;-53
2023/03/07 10:53:32;;;;;;;3.30;3.10;;;21.90;52.30;;;;;;222300;1257;24334;-54
2023/03/07 10:58:36;;;;;;;3.90;3.60;;;22.00;51.90;;;;;;222098;1256;24070;-54
2023/03/07 11:03:51;;;;;;;3.50;3.20;;;22.40;51.30;;;;;;222148;1256;23919;-57
2023/03/07 11:09:17;;;;;;;3.40;3.20;;;22.60;50.80;;;;;;222109;1263;24432;-54
2023/03/07 11:14:23;;;;;;;3.30;3.00;;;22.60;50.80;;;;;;222123;1263;23159;-61
2023/03/07 11:19:38;;;;;;;3.80;3.40;;;22.70;51.20;;;;;;222326;1263;22522;-59
2023/03/07 11:24:50;;;;;;;3.60;3.20;;;22.80;51.60;;;;;;222121;1259;25301;-62
2023/03/07 11:30:20;;;;;;;3.00;2.60;;;22.80;51.20;;;;;;222028;1248;22511;-60
2023/03/07 11:35:51;;;;;;;2.70;2.60;;;22.80;51.20;;;;;;222479;1255;22490;-64
2023/03/07 11:40:59;;;;;;;3.00;2.80;;;23.00;50.90;;;;;;222085;1256;22601;-60
2023/03/07 11:46:31;;;;;;;4.20;2.80;;;23.00;50.40;;;;;;222127;1263;23154;-50
2023/03/07 11:51:35;;;;;;;4.20;3.20;;;23.10;50.10;;;;;;222065;1263;25376;-51
2023/03/07 11:56:51;;;;;;;4.70;2.40;;;23.20;50.30;;;;;;221838;1270;22739;-52
2023/03/07 12:02:01;;;;;;;2.90;2.70;;;23.20;49.80;;;;;;229922;1270;22202;-51
2023/03/07 12:07:20;;;;;;;3.20;2.50;;;23.40;49.30;;;;;;222886;1269;24206;-50
2023/03/07 12:12:47;;;;;;;2.90;2.70;;;23.50;48.90;;;;;;222472;1267;25265;-54
2023/03/07 12:18:06;;;;;;;2.70;2.50;;;23.40;49.20;;;;;;222440;1269;24365;-55
2023/03/07 12:23:34;;;;;;;2.80;2.50;;;23.40;49.20;;;;;;222188;1256;22702;-55
2023/03/07 12:28:48;;;;;;;2.50;2.30;;;23.40;49.20;;;;;;222262;1269;22623;-54
2023/03/07 12:34:06;;;;;;;2.40;2.30;;;23.40;48.70;;;;;;222200;1256;24334;-54
2023/03/07 12:39:19;;;;;;;2.80;2.50;;;23.40;49.10;;;;;;222230;1257;24362;-55
2023/03/07 12:44:55;;;;;;;3.00;2.60;;;23.50;49.10;;;;;;222250;1255;22523;-51
2023/03/07 12:50:19;;;;;;;2.50;2.40;;;23.40;49.10;;;;;;222059;1269;22524;-55
2023/03/07 12:55:33;;;;;;;2.80;2.30;;;23.40;49.50;;;;;;222214;1264;25600;-54
2023/03/07 13:00:48;;;;;;;3.70;2.50;;;23.30;49.20;;;;;;222017;1269;22513;-50
2023/03/07 13:05:52;;;;;;;2.20;2.10;;;23.30;49.30;;;;;;222179;1270;25201;-55
2023/03/07 13:10:56;;;;;;;2.60;2.40;;;23.20;49.60;;;;;;222132;1270;22512;-53
2023/03/07 13:16:05;;;;;;;2.50;2.30;;;23.10;50.20;;;;;;222288;1269;22531;-55
2023/03/07 13:21:33;;;;;;;2.90;2.50;;;23.00;49.90;;;;;;222226;1257;22636;-54
2023/03/07 13:26:37;;;;;;;2.40;2.30;;;23.00;49.90;;;;;;222158;1263;24241;-52
2023/03/07 13:31:41;;;;;;;2.30;2.20;;;22.90;49.70;;;;;;222126;1257;22511;-50
2023/03/07 13:36:46;;;;;;;2.20;2.10;;;22.80;49.70;;;;;;221983;1264;23918;-54
2023/03/07 13:41:50;;;;;;;2.30;2.20;;;22.80;49.50;;;;;;222640;1264;22527;-55
2023/03/07 13:46:59;;;;;;;2.30;2.20;;;22.80;49.50;;;;;;222212;1257;22507;-52
2023/03/07 13:52:19;;;;;;;2.60;2.40;;;22.70;49.70;;;;;;222053;1261;24283;-53
2023/03/07 13:57:27;;;;;;;2.40;2.20;;;22.70;49.60;;;;;;222040;1270;22541;-54
2023/03/07 14:02:33;;;;;;;2.00;1.90;;;22.60;49.30;;;;;;222308;1270;22521;-52
2023/03/07 14:07:40;;;;;;;2.20;2.10;;;22.60;49.70;;;;;;222250;1260;22516;-49
2023/03/07 14:13:09;;;;;;;2.40;2.20;;;22.50;49.80;;;;;;222127;1256;22518;-53
2023/03/07 14:18:37;;;;;;;2.40;2.30;;;22.50;50.10;;;;;;222103;1270;200553;-53
2023/03/07 14:24:17;;;;;;;2.10;1.90;;;22.40;50.30;;;;;;222142;1264;23890;-51
2023/03/07 14:29:29;;;;;;;2.10;1.90;;;22.30;49.90;;;;;;222132;1263;22540;-50
2023/03/07 14:34:34;;;;;;;;;;;22.30;50.30;;;;;;222508;1257;24625;-54
2023/03/07 14:39:57;;;;;;;4.20;2.00;;;22.30;50.00;;;;;;222683;1264;25262;-51
2023/03/07 14:45:20;;;;;;;2.10;2.00;;;22.20;49.80;;;;;;222670;1263;24233;-51
2023/03/07 14:50:30;;;;;;;3.40;2.20;;;22.20;50.00;;;;;;222649;1263;24247;-54
2023/03/07 14:55:38;;;;;;;5.50;2.50;;;22.20;50.20;;;;;;222717;1263;22746;-53
2023/03/07 15:00:42;;;;;;;2.90;2.40;;;22.10;50.30;;;;;;222551;1270;23336;-55
2023/03/07 15:05:50;;;;;;;3.00;2.40;;;22.10;50.50;;;;;;222382;1247;22511;-53
2023/03/07 15:11:12;;;;;;;3.10;2.10;;;22.00;50.80;;;;;;222298;1270;24215;-50
2023/03/07 15:16:33;;;;;;;3.20;2.90;;;22.00;50.90;;;;;;222409;1264;25294;-52
2023/03/07 15:21:48;;;;;;;2.90;2.40;;;22.00;51.00;;;;;;222310;1264;24269;-57
2023/03/07 15:26:54;;;;;;;4.30;2.60;;;21.90;51.50;;;;;;222159;1262;22515;-57
2023/03/07 15:32:05;;;;;;;4.60;2.70;;;21.90;51.70;;;;;;222271;1263;22525;-53
2023/03/07 15:37:24;;;;;;;4.40;2.60;;;21.80;51.70;;;;;;222232;1262;24059;-57
2023/03/07 15:42:29;;;;;;;3.00;2.80;;;21.70;51.70;;;;;;222024;1263;23082;-52
2023/03/07 15:47:33;;;;;;;2.90;2.50;;;21.80;51.90;;;;;;222105;1266;23246;-53
2023/03/07 15:52:38;;;;;;;3.70;3.00;;;22.00;51.30;;;;;;222032;1263;24184;-56
2023/03/07 15:57:52;;;;;;;3.70;2.70;;;22.20;50.70;;;;;;222431;1262;24100;-56
2023/03/07 16:03:24;;;;;;;6.30;2.60;;;22.50;50.30;;;;;;222103;1263;22530;-59
2023/03/07 16:08:29;;;;;;;3.30;3.00;;;22.60;50.00;;;;;;222274;1263;24210;-59
2023/03/07 16:13:42;;;;;;;2.50;2.30;;;22.70;49.80;;;;;;222225;1263;24698;-52
2023/03/07 16:18:47;;;;;;;3.50;2.70;;;22.80;49.70;;;;;;222362;1257;22541;-52
2023/03/07 16:23:51;;;;;;;4.70;3.70;;;22.80;49.60;;;;;;222255;1264;25217;-48
2023/03/07 16:28:56;;;;;;;7.20;3.20;;;23.00;49.00;;;;;;222199;1251;25172;-54
2023/03/07 16:34:00;;;;;;;5.50;3.30;;;23.10;48.90;;;;;;222067;1256;22645;-57
2023/03/07 16:45:51;;;;;;;8.20;3.50;;;23.30;48.60;;;;;;222066;1254;23167;-59
2023/03/07 16:50:56;;;;;;;4.00;3.30;;;23.40;49.60;;;;;;222306;1264;22612;-59
2023/03/07 16:56:02;;;;;;;5.70;3.40;;;23.40;48.90;;;;;;222050;1248;25287;-66
2023/03/07 17:01:11;;;;;;;4.60;3.00;;;23.40;49.00;;;;;;222168;1264;26217;-58
2023/03/07 17:06:17;;;;;;;5.30;3.30;;;23.40;48.80;;;;;;222557;1263;22508;-58
2023/03/07 17:11:30;;;;;;;5.50;3.10;;;23.40;48.50;;;;;;222306;1257;22747;-60
2023/03/07 17:16:41;;;;;;;4.30;3.60;;;23.40;48.40;;;;;;222186;1264;25206;-60
2023/03/07 17:21:48;;;;;;;5.50;3.10;;;23.30;49.50;;;;;;222276;1263;26496;-60
2023/03/07 17:26:55;;;;;;;5.50;3.00;;;23.20;50.50;;;;;;222149;1247;25680;-59
2023/03/07 17:32:02;;;;;;;7.30;3.00;;;23.30;49.90;;;;;;222088;1263;22996;-60
2023/03/07 17:37:09;;;;;;;4.00;3.00;;;23.10;50.10;;;;;;222016;1266;22560;-60
2023/03/07 17:42:16;;;;;;;3.30;3.00;;;23.10;50.70;;;;;;222126;1257;22515;-59
2023/03/07 17:47:22;;;;;;;6.60;3.00;;;22.90;50.40;;;;;;223004;1264;25264;-63
2023/03/07 17:52:28;;;;;;;4.50;2.50;;;23.00;50.30;;;;;;222062;1247;22527;-58
2023/03/07 17:57:34;;;;;;;5.00;2.70;;;23.00;50.00;;;;;;221712;1264;22696;-63
2023/03/07 18:02:44;;;;;;;4.70;2.70;;;22.80;50.80;;;;;;222019;1260;24043;-53
2023/03/07 18:07:51;;;;;;;3.70;2.80;;;22.80;50.20;;;;;;222309;1263;23961;-50
2023/03/07 18:12:58;;;;;;;6.20;2.60;;;22.70;50.50;;;;;;222215;1264;25107;-59
2023/03/07 18:18:05;;;;;;;3.10;2.50;;;22.70;50.90;;;;;;222034;1263;25227;-62
2023/03/07 18:23:11;;;;;;;5.40;2.80;;;22.60;50.40;;;;;;222067;1263;22577;-57
2023/03/07 18:28:22;;;;;;;4.60;2.30;;;22.70;50.50;;;;;;222130;1263;24189;-57
2023/03/07 18:33:28;;;;;;;4.60;2.80;;;22.50;50.40;;;;;;222040;1260;24367;-56
2023/03/07 18:38:36;;;;;;;5.90;2.90;;;22.50;50.20;;;;;;222289;1263;23849;-57
2023/03/07 18:43:43;;;;;;;3.40;2.30;;;22.50;50.30;;;;;;222239;1264;25379;-57
2023/03/07 18:48:50;;;;;;;3.90;2.90;;;22.30;50.30;;;;;;222131;1263;23891;-59
2023/03/07 18:53:59;;;;;;;3.60;2.70;;;22.30;50.20;;;;;;221879;1262;25553;-55
2023/03/07 18:59:09;;;;;;;3.40;2.90;;;22.10;50.40;;;;;;221194;1266;22539;-58
2023/03/07 19:04:17;;;;;;;5.60;3.20;;;22.00;50.30;;;;;;221406;1267;22531;-57
2023/03/07 19:09:24;;;;;;;3.10;2.60;;;21.90;50.30;;;;;;221547;1266;22656;-58
2023/03/07 19:14:33;;;;;;;4.10;2.40;;;21.90;50.30;;;;;;221439;1267;24075;-59
2023/03/07 19:19:41;;;;;;;4.90;2.70;;;21.80;50.20;;;;;;221307;1251;25693;-58
2023/03/07 19:24:49;;;;;;;2.60;2.40;;;21.80;50.30;;;;;;221358;1267;24244;-58
2023/03/07 19:29:56;;;;;;;3.00;2.70;;;21.70;50.20;;;;;;221417;1266;25275;-57
2023/03/07 19:35:02;;;;;;;2.80;2.60;;;21.60;50.30;;;;;;221605;1267;22527;-59
2023/03/07 19:40:09;;;;;;;3.30;2.30;;;21.60;50.20;;;;;;222184;1263;24183;-58
2023/03/07 19:45:17;;;;;;;3.30;2.30;;;21.60;50.10;;;;;;222111;1264;25265;-56
2023/03/07 19:50:26;;;;;;;2.10;1.90;;;21.60;50.20;;;;;;222179;1263;22739;-59
2023/03/07 19:55:31;;;;;;;3.10;2.80;;;21.90;49.30;;;;;;221876;1263;24193;-59
2023/03/07 20:00:43;;;;;;;3.10;2.50;;;22.30;48.40;;;;;;222252;1270;25302;-59
2023/03/07 20:05:53;;;;;;;;;;;22.50;47.90;;;;;;222249;1263;23112;-60
2023/03/07 20:11:11;;;;;;;2.80;2.50;;;22.70;47.50;;;;;;222103;1270;23883;-57
2023/03/07 20:16:19;;;;;;;2.70;2.50;;;22.80;47.20;;;;;;221995;1267;25326;-59
2023/03/07 20:21:28;;;;;;;3.30;2.50;;;22.80;47.10;;;;;;222088;1262;25372;-59
2023/03/07 20:26:39;;;;;;;3.70;2.50;;;22.80;47.20;;;;;;222051;1256;22520;-58
2023/03/07 20:31:47;;;;;;;3.50;2.10;;;23.10;50.10;;;;;;222076;1263;25305;-59
2023/03/07 20:36:54;;;;;;;2.50;2.30;;;23.40;49.00;;;;;;221368;1270;22671;-59
2023/03/07 20:42:01;;;;;;;3.10;2.30;;;23.50;48.80;;;;;;221491;1266;25457;-58
2023/03/07 20:47:08;;;;;;;2.80;2.50;;;23.60;48.80;;;;;;221392;1266;24336;-59
2023/03/07 20:52:15;;;;;;;3.30;2.60;;;23.60;48.80;;;;;;221571;1266;22557;-60
2023/03/07 20:57:22;;;;;;;8.30;4.30;;;23.00;51.50;;;;;;221520;1266;24234;-60
2023/03/07 21:02:29;;;;;;;10.70;3.00;;;23.00;54.40;;;;;;221347;1272;23905;-59
2023/03/07 21:07:35;;;;;;;8.10;2.70;;;22.90;54.90;;;;;;221622;1266;22751;-60
2023/03/07 21:12:41;;;;;;;4.10;3.00;;;22.80;55.30;;;;;;221544;1260;22531;-58
2023/03/07 21:17:50;;;;;;;11.60;3.40;;;22.70;54.30;;;;;;222111;1247;22531;-57
2023/03/07 21:22:55;;;;;;;9.50;3.40;;;22.80;58.00;;;;;;222096;1262;22520;-60
2023/03/07 21:28:02;;;;;;;12.60;3.90;;;22.70;57.90;;;;;;222156;1263;25214;-53
2023/03/07 21:33:10;;;;;;;11.10;3.50;;;22.60;59.00;;;;;;222175;1264;23019;-51
2023/03/07 21:38:17;;;;;;;7.90;3.80;;;22.70;58.60;;;;;;221595;1263;25382;-57
2023/03/07 21:43:23;;;;;;;13.60;3.70;;;22.60;58.60;;;;;;222016;1263;23974;-56
2023/03/07 21:48:30;;;;;;;6.00;3.10;;;22.60;58.90;;;;;;221868;1256;23890;-60
2023/03/07 21:53:35;;;;;;;7.10;3.10;;;22.70;58.40;;;;;;222149;1263;22645;-56
2023/03/07 21:58:40;;;;;;;6.30;2.70;;;22.70;58.70;;;;;;222090;1255;25475;-58
2023/03/07 22:03:44;;;;;;;4.40;2.60;;;22.60;58.50;;;;;;222220;1247;24184;-59
2023/03/07 22:08:48;;;;;;;4.10;3.00;;;22.60;58.20;;;;;;222066;1256;22726;-52
2023/03/07 22:13:52;;;;;;;7.30;2.50;;;22.50;58.20;;;;;;222147;1266;22666;-58
2023/03/07 22:18:56;;;;;;;5.00;2.70;;;22.50;57.70;;;;;;222051;1256;24399;-57
2023/03/07 22:24:00;;;;;;;4.30;2.70;;;22.40;58.00;;;;;;222072;1264;22506;-56
2023/03/07 22:29:04;;;;;;;5.30;2.80;;;22.30;58.60;;;;;;222072;1263;24268;-56
2023/03/07 22:34:09;;;;;;;5.10;2.50;;;22.30;57.80;;;;;;223952;1263;22579;-59
2023/03/07 22:39:13;;;;;;;3.30;2.50;;;22.30;57.10;;;;;;221985;1259;22550;-58
2023/03/07 22:44:18;;;;;;;6.80;3.60;;;22.40;58.00;;;;;;221926;1256;22626;-59
2023/03/07 22:49:22;;;;;;;5.20;2.30;;;22.40;56.40;;;;;;221915;1256;22521;-58
2023/03/07 22:54:26;;;;;;;25.70;11.20;;;22.30;56.90;;;;;;221991;1256;24189;-59
2023/03/07 22:59:31;;;;;;;28.00;13.10;;;22.20;57.10;;;;;;222117;1263;22507;-56
2023/03/07 23:04:34;;;;;;;21.00;10.10;;;22.20;56.80;;;;;;222010;1263;22523;-58
2023/03/07 23:09:38;;;;;;;20.50;9.70;;;22.20;56.60;;;;;;222132;1263;22514;-59
2023/03/07 23:14:42;;;;;;;19.30;8.10;;;22.20;56.80;;;;;;222046;1263;25394;-57
2023/03/07 23:19:47;;;;;;;13.40;7.80;;;22.00;56.80;;;;;;221996;1256;22641;-60
2023/03/07 23:24:51;;;;;;;17.50;9.20;;;21.90;56.90;;;;;;221921;1265;22532;-58
2023/03/07 23:29:56;;;;;;;14.50;7.00;;;21.80;56.80;;;;;;221912;1256;22623;-59
2023/03/07 23:35:00;;;;;;;12.30;6.70;;;21.70;56.80;;;;;;222199;1255;24215;-61
2023/03/07 23:40:06;;;;;;;15.60;7.10;;;21.70;56.90;;;;;;222109;1257;22533;-56
2023/03/07 23:45:10;;;;;;;12.20;6.00;;;21.70;56.90;;;;;;222073;1262;22627;-58
2023/03/07 23:50:14;;;;;;;10.90;5.60;;;21.70;57.10;;;;;;222044;1257;24228;-56
2023/03/07 23:55:18;;;;;;;11.00;5.60;;;21.60;57.00;;;;;;222090;1256;22521;-57
